Hauptseite
METAR-TAF:

METAR-TAF

Flughäfen :

Flughafen Lahr

Lahr, Deutschland

Breite: 48-22-09N, Länge: 007-49-40E, Höhe: 156 m

Beobachtung

Neuester Wetterbericht von vor 16 Minuten, um 17:20 UTC
Wind 5 kt aus Süd/Südost
Temperatur 0°C
Luftfeuchtigkeit 80%
Luftdruck 1025 hPa
Sichtweite: 7000 m

METAR: EDTL 301720Z 15005KT 7000 NSC M00/M03 Q1025

Zeit: 18:36 (17:36 UTC)

Prognose

Neuester Wetterbericht von vor 36 Minuten, um 17:00 UTC
Gültige Prognose vom 30 um 18 UTC bis 30 um 24 UTC
Wind 4 kt aus Süd
Sichtweite: 7000 m
Leicht bewölkt in der Höhe von 2000 ft
Wahrscheinlichkeit 30% :
Zeitweise
vom 30 um 23 UTC bis 30 um 24 UTC
Sichtweite: 4500 m
Leichtregen, Schnee

TAF: EDTL 301700Z 3018/3024 18004KT 7000 FEW020 PROB30 TEMPO 3023/3024 4500 -RASN

Wetterbeobachtungen und Prognosen von mehr als 4000 Flughäfen (METAR und TAF Bericht).

Die verfügbaren Stationen werden durch gelbe und rote Markierungen auf der Karte dargestellt.

Führen Sie die Maus auf sie, um den Namen der Station zu sehen.

Darauf klicken, um die Beobachtung von Wetterbeobachtungen und Prognosen zu sehen.

Um die Karte zu ändern : klicken Sie auf den grünen Tasten mit einem schwarzen Kreuz Zum Vergrößern, auf den grünen Button mit einem Gedankenstrich zu verkleinern, oder auf die grünen Pfeile für benachbarte Karten.


METAR-TAF: